Time,TemperatureF,DewpointF,PressureIn,WindDirection,WindDirectionDegrees,WindSpeedMPH,WindSpeedGustMPH,Humidity,HourlyPrecipIn,Conditions,Clouds,dailyrainin,SoftwareType,DateUTC
2013-02-23 00:00:00,62.8,48.7,30.00,WSW,248,0.0,0.0,60,0.00,,---,0.00,VWS V14.01,2013-02-23 05:00:00,
2013-02-23 00:05:00,62.6,49.0,30.00,WSW,248,0.0,0.0,61,0.00,,---,0.00,VWS V14.01,2013-02-23 05:05:00,
2013-02-23 00:10:00,62.4,49.2,30.00,WSW,248,0.0,0.0,62,0.00,,---,0.00,VWS V14.01,2013-02-23 05:10:00,
2013-02-23 00:15:00,62.2,49.1,30.00,WSW,248,0.0,0.0,62,0.00,,---,0.00,VWS V14.01,2013-02-23 05:15:00,
2013-02-23 00:20:00,61.9,48.7,30.00,WSW,248,0.0,0.0,62,0.00,,---,0.00,VWS V14.01,2013-02-23 05:20:00,
2013-02-23 00:25:00,61.9,49.2,30.00,WSW,248,0.0,0.0,63,0.00,,---,0.00,VWS V14.01,2013-02-23 05:25:00,
2013-02-23 00:30:00,61.7,48.6,30.00,WSW,248,0.0,0.0,62,0.00,,---,0.00,VWS V14.01,2013-02-23 05:30:00,
2013-02-23 00:35:00,61.5,48.8,30.00,WSW,248,0.0,0.0,63,0.00,,---,0.00,VWS V14.01,2013-02-23 05:35:00,
2013-02-23 00:40:00,61.5,48.8,30.00,WSW,248,0.0,0.0,63,0.00,,---,0.00,VWS V14.01,2013-02-23 05:40:00,
2013-02-23 00:45:00,61.5,49.2,30.00,WSW,248,0.0,0.0,64,0.00,,---,0.00,VWS V14.01,2013-02-23 05:45:00,
2013-02-23 00:50:00,61.5,49.2,30.00,WSW,248,0.0,0.0,64,0.00,,---,0.00,VWS V14.01,2013-02-23 05:50:00,
2013-02-23 00:55:00,61.7,49.4,30.00,WSW,248,0.0,0.0,64,0.00,,---,0.00,VWS V14.01,2013-02-23 05:55:00,
2013-02-23 01:00:00,61.9,49.6,30.00,WSW,248,0.0,0.0,64,0.00,,---,0.00,VWS V14.01,2013-02-23 06:00:00,
2013-02-23 01:05:00,61.9,50.0,30.00,WSW,248,0.0,0.0,65,0.00,,---,0.00,VWS V14.01,2013-02-23 06:05:00,
2013-02-23 01:10:00,61.9,50.0,30.00,WSW,248,0.0,0.0,65,0.00,,---,0.00,VWS V14.01,2013-02-23 06:10:00,
2013-02-23 01:15:00,61.9,50.0,30.00,WSW,248,0.0,0.0,65,0.00,,---,0.00,VWS V14.01,2013-02-23 06:15:00,
2013-02-23 01:20:00,61.9,50.0,30.00,WSW,248,0.0,0.0,65,0.00,,---,0.00,VWS V14.01,2013-02-23 06:20:00,
2013-02-23 01:25:00,61.9,50.0,30.00,WSW,248,0.0,0.0,65,0.00,,---,0.00,VWS V14.01,2013-02-23 06:25:00,
2013-02-23 01:30:00,61.7,49.8,30.00,WSW,248,0.0,0.0,65,0.00,,---,0.00,VWS V14.01,2013-02-23 06:30:00,
2013-02-23 01:35:00,61.7,49.8,30.00,WSW,248,0.0,0.0,65,0.00,,---,0.00,VWS V14.01,2013-02-23 06:35:00,
2013-02-23 01:40:00,61.3,49.5,30.00,WSW,248,0.0,0.0,65,0.00,,---,0.00,VWS V14.01,2013-02-23 06:40:00,
2013-02-23 01:45:00,61.3,49.5,30.00,WSW,248,0.0,0.0,65,0.00,,---,0.00,VWS V14.01,2013-02-23 06:45:00,
2013-02-23 01:50:00,61.0,49.2,30.00,WSW,248,0.0,0.0,65,0.00,,---,0.00,VWS V14.01,2013-02-23 06:50:00,
2013-02-23 01:55:00,60.8,49.0,30.00,WSW,248,0.0,0.0,65,0.00,,---,0.00,VWS V14.01,2013-02-23 06:55:00,
2013-02-23 02:00:00,60.6,49.2,30.00,WSW,248,0.0,0.0,66,0.00,,---,0.00,VWS V14.01,2013-02-23 07:00:00,
2013-02-23 02:05:00,60.4,49.0,29.97,WSW,248,0.0,0.0,66,0.00,,---,0.00,VWS V14.01,2013-02-23 07:05:00,
2013-02-23 02:10:00,60.4,49.0,29.97,WSW,248,0.0,0.0,66,0.00,,---,0.00,VWS V14.01,2013-02-23 07:10:00,
2013-02-23 02:15:00,60.3,48.9,29.97,WSW,248,0.0,0.0,66,0.00,,---,0.00,VWS V14.01,2013-02-23 07:15:00,
2013-02-23 02:20:00,60.1,48.7,29.97,WSW,248,0.0,0.0,66,0.00,,---,0.00,VWS V14.01,2013-02-23 07:20:00,
2013-02-23 02:25:00,59.9,48.5,29.97,WSW,248,0.0,0.0,66,0.00,,---,0.00,VWS V14.01,2013-02-23 07:25:00,
2013-02-23 02:30:00,59.7,48.4,29.97,WSW,248,0.0,0.0,66,0.00,,---,0.00,VWS V14.01,2013-02-23 07:30:00,
2013-02-23 02:35:00,59.7,48.8,29.97,WSW,248,0.0,0.0,67,0.00,,---,0.00,VWS V14.01,2013-02-23 07:35:00,
2013-02-23 02:40:00,59.7,48.8,29.97,South,176,0.0,0.0,67,0.00,,---,0.00,VWS V14.01,2013-02-23 07:40:00,
2013-02-23 02:45:00,60.1,49.9,29.97,South,189,3.1,3.1,69,0.00,,---,0.00,VWS V14.01,2013-02-23 07:45:00,
2013-02-23 02:50:00,61.0,51.9,29.94,NW,325,0.0,0.0,72,0.00,,---,0.00,VWS V14.01,2013-02-23 07:50:00,
2013-02-23 02:55:00,60.6,51.2,29.94,NW,322,0.0,0.0,71,0.00,,---,0.00,VWS V14.01,2013-02-23 07:55:00,
2013-02-23 03:00:00,60.6,50.8,29.94,NW,322,0.0,0.0,70,0.00,,---,0.00,VWS V14.01,2013-02-23 08:00:00,
2013-02-23 03:05:00,60.8,51.0,29.94,NW,322,0.0,0.0,70,0.00,,---,0.00,VWS V14.01,2013-02-23 08:05:00,
2013-02-23 03:10:00,61.0,51.1,29.94,NW,322,0.0,0.0,70,0.00,,---,0.00,VWS V14.01,2013-02-23 08:10:00,
2013-02-23 03:15:00,61.0,51.1,29.94,NW,322,0.0,0.0,70,0.00,,---,0.00,VWS V14.01,2013-02-23 08:15:00,
2013-02-23 03:20:00,61.0,51.1,29.94,NW,322,0.0,0.0,70,0.00,,---,0.00,VWS V14.01,2013-02-23 08:20:00,
2013-02-23 03:25:00,61.3,52.2,29.94,SSE,147,0.0,0.0,72,0.00,,---,0.00,VWS V14.01,2013-02-23 08:25:00,
2013-02-23 03:30:00,61.9,53.5,29.94,SSE,147,0.0,0.0,74,0.00,,---,0.00,VWS V14.01,2013-02-23 08:30:00,
2013-02-23 03:35:00,61.9,53.1,29.94,West,280,0.0,0.0,73,0.00,,---,0.00,VWS V14.01,2013-02-23 08:35:00,
2013-02-23 03:40:00,62.2,53.9,29.94,West,280,0.0,0.0,74,0.00,,---,0.00,VWS V14.01,2013-02-23 08:40:00,
2013-02-23 03:45:00,62.6,54.6,29.94,South,171,0.0,0.0,75,0.00,,---,0.00,VWS V14.01,2013-02-23 08:45:00,
2013-02-23 03:50:00,63.1,56.2,29.94,SSE,163,0.0,0.0,78,0.00,,---,0.00,VWS V14.01,2013-02-23 08:50:00,
2013-02-23 03:55:00,63.5,56.2,29.94,South,191,0.0,0.0,77,0.00,,---,0.00,VWS V14.01,2013-02-23 08:55:00,
2013-02-23 04:00:00,64.2,57.2,29.94,SSW,210,0.0,0.0,78,0.00,,---,0.00,VWS V14.01,2013-02-23 09:00:00,
2013-02-23 04:05:00,64.8,57.8,29.94,West,260,0.0,0.0,78,0.00,,---,0.00,VWS V14.01,2013-02-23 09:05:00,
2013-02-23 04:10:00,64.9,57.9,29.94,SSW,213,0.0,0.0,78,0.00,,---,0.00,VWS V14.01,2013-02-23 09:10:00,
2013-02-23 04:15:00,65.1,57.7,29.94,SSW,207,0.0,0.0,77,0.00,,---,0.00,VWS V14.01,2013-02-23 09:15:00,
2013-02-23 04:20:00,65.3,58.3,29.94,South,182,0.0,0.0,78,0.00,,---,0.00,VWS V14.01,2013-02-23 09:20:00,
2013-02-23 04:25:00,65.3,57.9,29.94,South,188,0.0,0.0,77,0.00,,---,0.00,VWS V14.01,2013-02-23 09:25:00,
2013-02-23 04:30:00,65.3,57.9,29.94,South,176,0.0,0.0,77,0.00,,---,0.00,VWS V14.01,2013-02-23 09:30:00,
2013-02-23 04:35:00,65.1,57.7,29.94,South,176,0.0,0.0,77,0.00,,---,0.00,VWS V14.01,2013-02-23 09:35:00,
2013-02-23 04:40:00,64.9,57.6,29.94,South,176,0.0,0.0,77,0.00,,---,0.00,VWS V14.01,2013-02-23 09:40:00,
2013-02-23 04:45:00,64.8,57.4,29.94,South,176,0.0,0.0,77,0.00,,---,0.00,VWS V14.01,2013-02-23 09:45:00,
2013-02-23 04:50:00,64.8,57.4,29.94,South,176,0.0,0.0,77,0.00,,---,0.00,VWS V14.01,2013-02-23 09:50:00,
2013-02-23 04:55:00,64.8,57.8,29.94,SSW,193,0.0,0.0,78,0.00,,---,0.00,VWS V14.01,2013-02-23 09:55:00,
2013-02-23 05:00:00,64.8,57.4,29.94,SSW,193,0.0,0.0,77,0.00,,---,0.00,VWS V14.01,2013-02-23 10:00:00,
2013-02-23 05:05:00,64.9,57.9,29.94,SSW,193,0.0,0.0,78,0.00,,---,0.00,VWS V14.01,2013-02-23 10:05:00,
2013-02-23 05:10:00,65.1,58.1,29.94,SSW,193,0.0,0.0,78,0.00,,---,0.00,VWS V14.01,2013-02-23 10:10:00,
2013-02-23 05:15:00,65.5,58.8,29.94,SSW,193,0.0,0.0,79,0.00,,---,0.00,VWS V14.01,2013-02-23 10:15:00,
2013-02-23 05:20:00,65.7,59.0,29.94,SSW,204,0.0,0.0,79,0.00,,---,0.00,VWS V14.01,2013-02-23 10:20:00,
2013-02-23 05:25:00,65.8,59.5,29.94,SSW,204,0.0,0.0,80,0.00,,---,0.00,VWS V14.01,2013-02-23 10:25:00,
2013-02-23 05:30:00,66.0,59.7,29.94,SSW,198,0.0,0.0,80,0.00,,---,0.00,VWS V14.01,2013-02-23 10:30:00,
2013-02-23 05:35:00,66.2,59.9,29.94,SSW,209,0.0,0.0,80,0.00,,---,0.00,VWS V14.01,2013-02-23 10:35:00,
2013-02-23 05:40:00,66.4,60.4,29.94,SSW,209,0.0,0.0,81,0.00,,---,0.00,VWS V14.01,2013-02-23 10:40:00,
2013-02-23 05:45:00,66.6,60.6,29.94,SSW,197,0.0,0.0,81,0.00,,---,0.00,VWS V14.01,2013-02-23 10:45:00,
2013-02-23 05:50:00,66.7,60.7,29.94,SSW,194,0.0,0.0,81,0.00,,---,0.00,VWS V14.01,2013-02-23 10:50:00,
2013-02-23 05:55:00,66.7,60.7,29.94,SSW,213,0.0,0.0,81,0.00,,---,0.00,VWS V14.01,2013-02-23 10:55:00,
2013-02-23 06:00:00,66.9,61.2,29.94,SSW,193,0.0,0.0,82,0.00,,---,0.00,VWS V14.01,2013-02-23 11:00:00,
2013-02-23 06:05:00,66.9,61.2,29.94,SSW,193,0.0,0.0,82,0.00,,---,0.00,VWS V14.01,2013-02-23 11:05:00,
2013-02-23 06:10:00,67.1,61.4,29.94,SSW,193,0.0,0.0,82,0.00,,---,0.00,VWS V14.01,2013-02-23 11:10:00,
2013-02-23 06:15:00,67.1,61.4,29.94,SSE,150,0.0,0.0,82,0.00,,---,0.00,VWS V14.01,2013-02-23 11:15:00,
2013-02-23 06:20:00,67.1,61.8,29.94,SSW,209,0.0,2.2,83,0.00,,---,0.00,VWS V14.01,2013-02-23 11:20:00,
2013-02-23 06:25:00,67.1,61.8,29.94,SSW,196,0.0,0.0,83,0.00,,---,0.00,VWS V14.01,2013-02-23 11:25:00,
2013-02-23 06:30:00,67.3,62.6,29.94,SSW,193,0.0,0.0,85,0.00,,---,0.00,VWS V14.01,2013-02-23 11:30:00,
2013-02-23 06:35:00,67.3,62.6,29.94,SW,215,0.0,0.0,85,0.00,,---,0.00,VWS V14.01,2013-02-23 11:35:00,
2013-02-23 06:40:00,67.6,63.6,29.94,SW,225,0.0,0.0,87,0.00,,---,0.00,VWS V14.01,2013-02-23 11:40:00,
2013-02-23 06:45:00,67.8,64.1,29.94,South,169,0.0,0.0,88,0.00,,---,0.00,VWS V14.01,2013-02-23 11:45:00,
2013-02-23 06:50:00,68.0,64.3,29.94,West,264,0.0,0.0,88,0.00,,---,0.00,VWS V14.01,2013-02-23 11:50:00,
2013-02-23 06:55:00,68.2,64.2,29.94,SW,218,0.0,0.0,87,0.00,,---,0.00,VWS V14.01,2013-02-23 11:55:00,
2013-02-23 07:00:00,68.2,64.2,29.94,SW,219,0.0,0.0,87,0.00,,---,0.00,VWS V14.01,2013-02-23 12:00:00,
2013-02-23 07:05:00,68.2,64.5,29.94,SW,215,2.2,2.7,88,0.00,,---,0.00,VWS V14.01,2013-02-23 12:05:00,
2013-02-23 07:10:00,68.4,64.7,29.94,WSW,245,0.0,0.0,88,0.00,,---,0.00,VWS V14.01,2013-02-23 12:10:00,
2013-02-23 07:15:00,68.4,64.7,29.94,SW,227,0.0,0.0,88,0.00,,---,0.00,VWS V14.01,2013-02-23 12:15:00,
2013-02-23 07:20:00,68.4,64.7,29.97,SSW,200,0.0,0.0,88,0.00,,---,0.00,VWS V14.01,2013-02-23 12:20:00,
2013-02-23 07:25:00,68.4,64.7,29.97,WSW,241,0.0,0.0,88,0.00,,---,0.00,VWS V14.01,2013-02-23 12:25:00,
2013-02-23 07:30:00,68.4,64.7,29.97,SSW,204,0.0,0.0,88,0.00,,---,0.00,VWS V14.01,2013-02-23 12:30:00,
2013-02-23 07:35:00,68.5,65.2,29.97,SSW,196,2.7,2.7,89,0.00,,---,0.00,VWS V14.01,2013-02-23 12:35:00,
2013-02-23 07:40:00,68.7,65.7,29.97,South,186,0.0,0.0,90,0.00,,---,0.00,VWS V14.01,2013-02-23 12:40:00,
2013-02-23 07:45:00,68.9,66.2,29.97,South,185,0.0,0.0,91,0.00,,---,0.00,VWS V14.01,2013-02-23 12:45:00,
2013-02-23 07:50:00,69.1,66.0,29.94,SW,229,0.0,0.0,90,0.00,,---,0.00,VWS V14.01,2013-02-23 12:50:00,
2013-02-23 07:55:00,69.3,66.2,29.94,SSW,212,0.0,0.0,90,0.00,,---,0.00,VWS V14.01,2013-02-23 12:55:00,
2013-02-23 08:00:00,69.3,66.5,29.94,SSW,201,2.2,2.2,91,0.00,,---,0.00,VWS V14.01,2013-02-23 13:00:00,
2013-02-23 08:05:00,69.4,66.4,29.97,SSE,157,4.0,4.0,90,0.00,,---,0.00,VWS V14.01,2013-02-23 13:05:00,
2013-02-23 08:10:00,69.6,66.6,29.97,WSW,248,2.7,2.7,90,0.00,,---,0.00,VWS V14.01,2013-02-23 13:10:00,
2013-02-23 08:15:00,69.8,66.7,29.97,SW,217,2.7,2.7,90,0.00,,---,0.00,VWS V14.01,2013-02-23 13:15:00,
2013-02-23 08:20:00,70.0,66.6,29.97,SSW,195,0.0,2.2,89,0.00,,---,0.00,VWS V14.01,2013-02-23 13:20:00,
2013-02-23 08:25:00,70.2,66.4,29.97,WSW,247,3.1,3.1,88,0.00,,---,0.00,VWS V14.01,2013-02-23 13:25:00,
2013-02-23 08:30:00,70.2,66.4,29.97,South,185,0.0,0.0,88,0.00,,---,0.00,VWS V14.01,2013-02-23 13:30:00,
2013-02-23 08:35:00,70.3,66.3,29.97,SSW,210,3.6,4.0,87,0.00,,---,0.00,VWS V14.01,2013-02-23 13:35:00,
2013-02-23 08:40:00,70.3,66.0,29.97,SSW,202,3.1,3.1,86,0.00,,---,0.00,VWS V14.01,2013-02-23 13:40:00,
2013-02-23 08:45:00,70.5,66.1,29.97,SSW,195,4.0,4.0,86,0.00,,---,0.00,VWS V14.01,2013-02-23 13:45:00,
2013-02-23 08:50:00,70.7,66.3,29.97,SSW,200,3.1,3.1,86,0.00,,---,0.00,VWS V14.01,2013-02-23 13:50:00,
2013-02-23 08:55:00,70.7,66.0,29.97,SW,224,5.8,5.8,85,0.00,,---,0.00,VWS V14.01,2013-02-23 13:55:00,
2013-02-23 09:00:00,70.9,65.8,29.97,WSW,242,3.1,3.1,84,0.00,,---,0.00,VWS V14.01,2013-02-23 14:00:00,
2013-02-23 09:05:00,71.1,65.6,29.97,SSW,207,2.2,2.7,83,0.00,,---,0.00,VWS V14.01,2013-02-23 14:05:00,
2013-02-23 09:10:00,71.2,65.8,29.97,SSW,212,3.1,3.1,83,0.00,,---,0.00,VWS V14.01,2013-02-23 14:10:00,
2013-02-23 09:15:00,71.2,65.5,29.97,South,182,3.6,3.6,82,0.00,,---,0.00,VWS V14.01,2013-02-23 14:15:00,
2013-02-23 09:20:00,71.6,65.5,29.97,South,187,3.1,3.1,81,0.00,,---,0.00,VWS V14.01,2013-02-23 14:20:00,
2013-02-23 09:25:00,71.8,65.3,29.97,SSW,212,3.1,3.1,80,0.00,,---,0.00,VWS V14.01,2013-02-23 14:25:00,
2013-02-23 09:30:00,71.8,64.2,29.97,SW,221,3.1,4.0,77,0.00,,---,0.00,VWS V14.01,2013-02-23 14:30:00,
2013-02-23 09:35:00,72.0,64.0,29.97,WSW,238,3.1,3.6,76,0.00,,---,0.00,VWS V14.01,2013-02-23 14:35:00,
2013-02-23 09:40:00,72.1,63.4,29.97,WNW,285,3.6,3.6,74,0.00,,---,0.00,VWS V14.01,2013-02-23 14:40:00,
2013-02-23 09:45:00,72.3,63.2,29.97,South,190,2.7,3.1,73,0.00,,---,0.00,VWS V14.01,2013-02-23 14:45:00,
2013-02-23 09:50:00,72.5,62.6,29.97,SSW,207,3.6,5.4,71,0.00,,---,0.00,VWS V14.01,2013-02-23 14:50:00,
2013-02-23 09:55:00,72.7,61.9,29.97,SSW,211,3.6,5.4,69,0.00,,---,0.00,VWS V14.01,2013-02-23 14:55:00,
2013-02-23 10:00:00,73.0,61.5,29.97,SW,225,3.6,4.0,67,0.00,,---,0.00,VWS V14.01,2013-02-23 15:00:00,
2013-02-23 10:05:00,73.4,61.8,29.97,SW,214,2.7,3.1,67,0.00,,---,0.00,VWS V14.01,2013-02-23 15:05:00,
2013-02-23 10:10:00,73.9,61.4,29.97,SW,217,2.7,4.0,65,0.00,,---,0.00,VWS V14.01,2013-02-23 15:10:00,
2013-02-23 10:15:00,74.3,60.5,29.97,SSW,200,4.0,6.3,62,0.00,,---,0.00,VWS V14.01,2013-02-23 15:15:00,
2013-02-23 10:20:00,74.5,60.2,29.97,South,191,7.6,8.3,61,0.00,,---,0.00,VWS V14.01,2013-02-23 15:20:00,
2013-02-23 10:25:00,74.1,59.4,29.97,WNW,293,3.6,6.3,60,0.00,,---,0.00,VWS V14.01,2013-02-23 15:25:00,
2013-02-23 10:30:00,73.9,58.7,29.97,SW,230,3.1,5.8,59,0.00,,---,0.00,VWS V14.01,2013-02-23 15:30:00,
2013-02-23 10:35:00,74.3,59.1,29.97,SW,215,7.2,7.2,59,0.00,,---,0.00,VWS V14.01,2013-02-23 15:35:00,
2013-02-23 10:40:00,74.7,58.4,29.97,SSW,212,4.9,7.2,57,0.00,,---,0.00,VWS V14.01,2013-02-23 15:40:00,
2013-02-23 10:45:00,75.0,57.8,29.97,SW,222,3.6,3.6,55,0.00,,---,0.00,VWS V14.01,2013-02-23 15:45:00,
2013-02-23 10:50:00,75.4,57.6,29.94,SW,217,3.1,5.8,54,0.00,,---,0.00,VWS V14.01,2013-02-23 15:50:00,
2013-02-23 10:55:00,75.4,57.6,29.94,SW,225,2.2,4.9,54,0.00,,---,0.00,VWS V14.01,2013-02-23 15:55:00,
2013-02-23 11:00:00,75.6,57.2,29.94,SW,218,3.1,5.4,53,0.00,,---,0.00,VWS V14.01,2013-02-23 16:00:00,
2013-02-23 11:05:00,75.9,57.0,29.97,WSW,247,5.4,5.4,52,0.00,,---,0.00,VWS V14.01,2013-02-23 16:05:00,
2013-02-23 11:10:00,76.5,57.5,29.97,SSE,165,5.8,6.3,52,0.00,,---,0.00,VWS V14.01,2013-02-23 16:10:00,
2013-02-23 11:15:00,76.5,57.5,29.97,SW,233,2.7,8.7,52,0.00,,---,0.00,VWS V14.01,2013-02-23 16:15:00,
2013-02-23 11:20:00,76.8,57.3,29.97,SSW,201,4.0,5.8,51,0.00,,---,0.00,VWS V14.01,2013-02-23 16:20:00,
2013-02-23 11:25:00,76.8,57.3,29.97,SW,224,4.5,6.3,51,0.00,,---,0.00,VWS V14.01,2013-02-23 16:25:00,
2013-02-23 11:30:00,77.2,57.1,29.97,SSW,207,5.8,5.8,50,0.00,,---,0.00,VWS V14.01,2013-02-23 16:30:00,
2013-02-23 11:35:00,77.9,57.8,29.94,SW,216,3.6,3.6,50,0.00,,---,0.00,VWS V14.01,2013-02-23 16:35:00,
2013-02-23 11:40:00,78.8,56.9,29.94,SW,217,3.1,5.4,47,0.00,,---,0.00,VWS V14.01,2013-02-23 16:40:00,
2013-02-23 11:45:00,79.3,57.4,29.94,SSW,207,8.3,8.3,47,0.00,,---,0.00,VWS V14.01,2013-02-23 16:45:00,
2013-02-23 11:50:00,79.5,56.3,29.97,SE,136,5.4,5.4,45,0.00,,---,0.00,VWS V14.01,2013-02-23 16:50:00,
2013-02-23 11:55:00,79.2,55.4,29.97,WSW,253,4.0,4.0,44,0.00,,---,0.00,VWS V14.01,2013-02-23 16:55:00,
2013-02-23 12:00:00,79.0,54.6,29.97,South,189,4.0,4.0,43,0.00,,---,0.00,VWS V14.01,2013-02-23 17:00:00,
2013-02-23 12:05:00,79.2,54.8,29.94,SW,236,5.4,5.4,43,0.00,,---,0.00,VWS V14.01,2013-02-23 17:05:00,
2013-02-23 12:10:00,79.9,55.4,29.94,SW,233,3.1,3.6,43,0.00,,---,0.00,VWS V14.01,2013-02-23 17:10:00,
2013-02-23 12:15:00,80.1,54.9,29.94,SW,226,4.9,6.3,42,0.00,,---,0.00,VWS V14.01,2013-02-23 17:15:00,
2013-02-23 12:20:00,79.7,54.6,29.94,WSW,238,5.4,5.4,42,0.00,,---,0.00,VWS V14.01,2013-02-23 17:20:00,
2013-02-23 12:25:00,79.3,54.3,29.94,SW,236,4.9,4.9,42,0.00,,---,0.00,VWS V14.01,2013-02-23 17:25:00,
2013-02-23 12:30:00,79.7,54.6,29.94,SW,219,4.9,5.8,42,0.00,,---,0.00,VWS V14.01,2013-02-23 17:30:00,
2013-02-23 12:35:00,80.2,55.1,29.94,SW,224,3.6,7.6,42,0.00,,---,0.00,VWS V14.01,2013-02-23 17:35:00,
2013-02-23 12:40:00,80.6,54.8,29.94,WSW,241,6.3,6.3,41,0.00,,---,0.00,VWS V14.01,2013-02-23 17:40:00,
2013-02-23 12:45:00,80.6,54.8,29.94,West,259,7.6,7.6,41,0.00,,---,0.00,VWS V14.01,2013-02-23 17:45:00,
2013-02-23 12:50:00,80.8,54.2,29.94,SW,225,5.4,6.3,40,0.00,,---,0.00,VWS V14.01,2013-02-23 17:50:00,
2013-02-23 12:55:00,81.1,54.5,29.94,SW,235,5.8,5.8,40,0.00,,---,0.00,VWS V14.01,2013-02-23 17:55:00,
2013-02-23 13:00:00,81.3,54.7,29.94,West,265,10.1,11.9,40,0.00,,---,0.00,VWS V14.01,2013-02-23 18:00:00,
2013-02-23 13:05:00,81.7,55.0,29.94,SW,232,4.9,8.3,40,0.00,,---,0.00,VWS V14.01,2013-02-23 18:05:00,
2013-02-23 13:10:00,81.5,54.9,29.94,SW,222,3.6,6.3,40,0.00,,---,0.00,VWS V14.01,2013-02-23 18:10:00,
2013-02-23 13:15:00,81.5,54.9,29.94,SSW,200,4.0,5.4,40,0.00,,---,0.00,VWS V14.01,2013-02-23 18:15:00,
2013-02-23 13:20:00,81.3,54.7,29.94,WSW,252,5.8,6.3,40,0.00,,---,0.00,VWS V14.01,2013-02-23 18:20:00,
2013-02-23 13:25:00,81.5,54.9,29.94,South,189,6.3,6.3,40,0.00,,---,0.00,VWS V14.01,2013-02-23 18:25:00,
2013-02-23 13:30:00,82.2,55.5,29.94,SW,235,5.4,5.8,40,0.00,,---,0.00,VWS V14.01,2013-02-23 18:30:00,
2013-02-23 13:35:00,82.6,55.1,29.94,SW,227,7.6,7.6,39,0.00,,---,0.00,VWS V14.01,2013-02-23 18:35:00,
2013-02-23 13:40:00,82.6,55.1,29.94,WSW,256,8.1,8.1,39,0.00,,---,0.00,VWS V14.01,2013-02-23 18:40:00,
2013-02-23 13:45:00,82.4,55.0,29.94,WSW,251,7.6,7.6,39,0.00,,---,0.00,VWS V14.01,2013-02-23 18:45:00,
2013-02-23 13:50:00,81.9,55.2,29.94,West,261,5.4,7.6,40,0.00,,---,0.00,VWS V14.01,2013-02-23 18:50:00,
2013-02-23 13:55:00,81.5,54.9,29.94,WSW,245,8.3,8.3,40,0.00,,---,0.00,VWS V14.01,2013-02-23 18:55:00,
2013-02-23 14:00:00,81.0,54.4,29.94,SW,236,6.3,8.3,40,0.00,,---,0.00,VWS V14.01,2013-02-23 19:00:00,
2013-02-23 14:05:00,81.1,54.5,29.94,SW,236,5.8,5.8,40,0.00,,---,0.00,VWS V14.01,2013-02-23 19:05:00,
2013-02-23 14:10:00,81.5,54.9,29.94,West,263,5.4,6.3,40,0.00,,---,0.00,VWS V14.01,2013-02-23 19:10:00,
2013-02-23 14:15:00,81.3,54.7,29.94,SW,232,7.6,8.7,40,0.00,,---,0.00,VWS V14.01,2013-02-23 19:15:00,
2013-02-23 14:20:00,81.3,54.7,29.94,SSW,202,5.4,5.8,40,0.00,,---,0.00,VWS V14.01,2013-02-23 19:20:00,
2013-02-23 14:25:00,81.3,54.7,29.94,SSW,204,11.0,11.0,40,0.00,,---,0.00,VWS V14.01,2013-02-23 19:25:00,
2013-02-23 14:30:00,81.5,54.9,29.94,South,191,5.4,5.4,40,0.00,,---,0.00,VWS V14.01,2013-02-23 19:30:00,
2013-02-23 14:35:00,81.1,54.5,29.94,SW,221,6.3,9.6,40,0.00,,---,0.00,VWS V14.01,2013-02-23 19:35:00,
2013-02-23 14:40:00,81.3,54.7,29.94,West,276,7.6,7.6,40,0.00,,---,0.00,VWS V14.01,2013-02-23 19:40:00,
2013-02-23 14:45:00,81.1,54.5,29.94,SSW,213,3.6,5.8,40,0.00,,---,0.00,VWS V14.01,2013-02-23 19:45:00,
2013-02-23 14:50:00,80.6,54.1,29.91,SW,234,5.4,8.3,40,0.00,,---,0.00,VWS V14.01,2013-02-23 19:50:00,
2013-02-23 14:55:00,81.0,54.4,29.91,SSW,209,3.6,3.6,40,0.00,,---,0.00,VWS V14.01,2013-02-23 19:55:00,
2013-02-23 15:00:00,81.1,54.5,29.91,WSW,255,5.4,8.3,40,0.00,,---,0.00,VWS V14.01,2013-02-23 20:00:00,
2013-02-23 15:05:00,80.8,54.2,29.91,West,261,5.8,10.1,40,0.00,,---,0.00,VWS V14.01,2013-02-23 20:05:00,
2013-02-23 15:10:00,81.3,54.7,29.91,SW,230,4.9,5.8,40,0.00,,---,0.00,VWS V14.01,2013-02-23 20:10:00,
2013-02-23 15:15:00,81.9,55.2,29.91,SSW,204,2.7,5.4,40,0.00,,---,0.00,VWS V14.01,2013-02-23 20:15:00,
2013-02-23 15:20:00,81.9,55.2,29.91,SW,221,3.6,4.0,40,0.00,,---,0.00,VWS V14.01,2013-02-23 20:20:00,
2013-02-23 15:25:00,81.9,55.2,29.91,SSW,195,5.4,5.4,40,0.00,,---,0.00,VWS V14.01,2013-02-23 20:25:00,
2013-02-23 15:30:00,81.5,54.9,29.91,SW,216,4.9,5.8,40,0.00,,---,0.00,VWS V14.01,2013-02-23 20:30:00,
2013-02-23 15:35:00,81.3,54.7,29.91,SW,230,4.9,4.9,40,0.00,,---,0.00,VWS V14.01,2013-02-23 20:35:00,
2013-02-23 15:40:00,81.1,54.5,29.91,SSW,213,6.3,8.1,40,0.00,,---,0.00,VWS V14.01,2013-02-23 20:40:00,
2013-02-23 15:45:00,81.1,54.5,29.91,WSW,256,4.0,6.3,40,0.00,,---,0.00,VWS V14.01,2013-02-23 20:45:00,
2013-02-23 15:50:00,81.3,54.7,29.91,SSW,213,3.6,6.7,40,0.00,,---,0.00,VWS V14.01,2013-02-23 20:50:00,
2013-02-23 15:55:00,81.3,54.7,29.91,SW,222,4.9,5.8,40,0.00,,---,0.00,VWS V14.01,2013-02-23 20:55:00,
2013-02-23 16:00:00,81.1,54.5,29.91,WSW,249,4.0,6.3,40,0.00,,---,0.00,VWS V14.01,2013-02-23 21:00:00,
2013-02-23 16:05:00,81.1,54.5,29.91,SSW,213,5.4,6.3,40,0.00,,---,0.00,VWS V14.01,2013-02-23 21:05:00,
2013-02-23 16:10:00,81.3,54.7,29.91,SW,226,4.0,4.9,40,0.00,,---,0.00,VWS V14.01,2013-02-23 21:10:00,
2013-02-23 16:15:00,81.7,55.0,29.91,WSW,248,5.4,5.8,40,0.00,,---,0.00,VWS V14.01,2013-02-23 21:15:00,
2013-02-23 16:20:00,81.3,54.7,29.91,WSW,244,4.0,7.6,40,0.00,,---,0.00,VWS V14.01,2013-02-23 21:20:00,
2013-02-23 16:25:00,81.0,54.4,29.91,WSW,245,5.4,6.3,40,0.00,,---,0.00,VWS V14.01,2013-02-23 21:25:00,
2013-02-23 16:30:00,81.0,54.4,29.91,SSW,193,3.6,8.1,40,0.00,,---,0.00,VWS V14.01,2013-02-23 21:30:00,
2013-02-23 16:35:00,80.8,54.2,29.91,West,267,6.3,6.3,40,0.00,,---,0.00,VWS V14.01,2013-02-23 21:35:00,
2013-02-23 16:40:00,80.6,54.1,29.91,SW,230,2.7,5.8,40,0.00,,---,0.00,VWS V14.01,2013-02-23 21:40:00,
2013-02-23 16:45:00,80.6,54.1,29.91,SW,223,4.9,5.4,40,0.00,,---,0.00,VWS V14.01,2013-02-23 21:45:00,
2013-02-23 16:50:00,79.9,54.1,29.91,WSW,238,3.1,5.8,41,0.00,,---,0.00,VWS V14.01,2013-02-23 21:50:00,
2013-02-23 16:55:00,79.5,53.8,29.91,SW,231,4.0,4.0,41,0.00,,---,0.00,VWS V14.01,2013-02-23 21:55:00,
2013-02-23 17:00:00,79.3,53.6,29.91,SSW,200,5.4,6.3,41,0.00,,---,0.00,VWS V14.01,2013-02-23 22:00:00,
2013-02-23 17:05:00,79.5,53.8,29.91,SW,222,4.0,7.6,41,0.00,,---,0.00,VWS V14.01,2013-02-23 22:05:00,
2013-02-23 17:10:00,80.1,54.3,29.91,SSW,196,4.9,4.9,41,0.00,,---,0.00,VWS V14.01,2013-02-23 22:10:00,
2013-02-23 17:15:00,80.1,54.3,29.91,SSE,167,3.6,4.0,41,0.00,,---,0.00,VWS V14.01,2013-02-23 22:15:00,
2013-02-23 17:20:00,79.9,54.1,29.91,SW,229,3.1,4.9,41,0.00,,---,0.00,VWS V14.01,2013-02-23 22:20:00,
2013-02-23 17:25:00,79.7,53.9,29.91,SW,224,4.5,5.4,41,0.00,,---,0.00,VWS V14.01,2013-02-23 22:25:00,
2013-02-23 17:30:00,79.5,53.8,29.91,WSW,246,3.6,3.6,41,0.00,,---,0.00,VWS V14.01,2013-02-23 22:30:00,
2013-02-23 17:35:00,79.5,53.8,29.91,WSW,256,5.8,5.8,41,0.00,,---,0.00,VWS V14.01,2013-02-23 22:35:00,
2013-02-23 17:40:00,79.3,54.3,29.91,SSW,202,4.0,5.8,42,0.00,,---,0.00,VWS V14.01,2013-02-23 22:40:00,
2013-02-23 17:45:00,79.0,54.0,29.91,SSW,205,3.1,5.4,42,0.00,,---,0.00,VWS V14.01,2013-02-23 22:45:00,
2013-02-23 17:50:00,78.6,53.6,29.91,South,183,4.0,4.9,42,0.00,,---,0.00,VWS V14.01,2013-02-23 22:50:00,
2013-02-23 17:55:00,78.4,54.1,29.91,SW,223,3.1,4.9,43,0.00,,---,0.00,VWS V14.01,2013-02-23 22:55:00,
2013-02-23 18:00:00,78.3,54.0,29.91,SW,232,4.0,5.4,43,0.00,,---,0.00,VWS V14.01,2013-02-23 23:00:00,
2013-02-23 18:05:00,77.7,53.5,29.91,WSW,255,7.2,7.2,43,0.00,,---,0.00,VWS V14.01,2013-02-23 23:05:00,
2013-02-23 18:10:00,77.4,53.8,29.91,West,271,4.0,4.0,44,0.00,,---,0.00,VWS V14.01,2013-02-23 23:10:00,
2013-02-23 18:16:00,77.2,53.6,29.91,SSW,205,3.6,4.0,44,0.00,,---,0.00,VWS V14.01,2013-02-23 23:16:00,
2013-02-23 18:21:00,77.0,54.1,29.91,SSW,204,4.0,4.0,45,0.00,,---,0.00,VWS V14.01,2013-02-23 23:21:00,
2013-02-23 18:26:00,76.6,54.3,29.91,SW,234,5.4,5.8,46,0.00,,---,0.00,VWS V14.01,2013-02-23 23:26:00,
2013-02-23 18:31:00,76.5,54.8,29.91,SW,235,3.6,7.6,47,0.00,,---,0.00,VWS V14.01,2013-02-23 23:31:00,
2013-02-23 18:36:00,76.3,54.6,29.91,SW,223,3.6,5.4,47,0.00,,---,0.00,VWS V14.01,2013-02-23 23:36:00,
2013-02-23 18:41:00,75.9,54.3,29.91,SW,229,2.2,4.0,47,0.00,,---,0.00,VWS V14.01,2013-02-23 23:41:00,
2013-02-23 18:46:00,75.7,54.1,29.91,SSW,197,2.7,3.1,47,0.00,,---,0.00,VWS V14.01,2013-02-23 23:46:00,
2013-02-23 18:51:00,75.6,54.5,29.94,SW,229,0.0,2.7,48,0.00,,---,0.00,VWS V14.01,2013-02-23 23:51:00,
2013-02-23 18:56:00,75.4,54.9,29.94,SSW,208,2.7,3.6,49,0.00,,---,0.00,VWS V14.01,2013-02-23 23:56:00,
2013-02-23 19:01:00,75.4,55.5,29.94,WSW,250,2.2,3.1,50,0.00,,---,0.00,VWS V14.01,2013-02-24 00:01:00,
2013-02-23 19:06:00,75.2,55.8,29.94,SW,218,2.7,3.1,51,0.00,,---,0.00,VWS V14.01,2013-02-24 00:06:00,
2013-02-23 19:11:00,75.0,55.7,29.94,SW,222,0.0,0.0,51,0.00,,---,0.00,VWS V14.01,2013-02-24 00:11:00,
2013-02-23 19:16:00,74.8,55.5,29.94,SW,222,0.0,0.0,51,0.00,,---,0.00,VWS V14.01,2013-02-24 00:16:00,
2013-02-23 19:21:00,74.7,55.3,29.94,SSW,209,2.2,2.2,51,0.00,,---,0.00,VWS V14.01,2013-02-24 00:21:00,
2013-02-23 19:26:00,74.5,55.2,29.94,WSW,249,0.0,0.0,51,0.00,,---,0.00,VWS V14.01,2013-02-24 00:26:00,
2013-02-23 19:31:00,74.3,55.0,29.94,SSW,202,2.7,2.7,51,0.00,,---,0.00,VWS V14.01,2013-02-24 00:31:00,
2013-02-23 19:36:00,74.1,55.4,29.94,SSW,198,0.0,0.0,52,0.00,,---,0.00,VWS V14.01,2013-02-24 00:36:00,
2013-02-23 19:41:00,73.9,55.2,29.94,SSW,198,0.0,0.0,52,0.00,,---,0.00,VWS V14.01,2013-02-24 00:41:00,
2013-02-23 19:46:00,73.8,55.1,29.94,SSW,198,0.0,0.0,52,0.00,,---,0.00,VWS V14.01,2013-02-24 00:46:00,
2013-02-23 19:51:00,73.6,55.4,29.94,West,261,0.0,0.0,53,0.00,,---,0.00,VWS V14.01,2013-02-24 00:51:00,
2013-02-23 19:56:00,73.4,55.2,29.94,SW,218,0.0,0.0,53,0.00,,---,0.00,VWS V14.01,2013-02-24 00:56:00,
2013-02-23 20:01:00,73.2,55.1,29.94,SW,218,0.0,0.0,53,0.00,,---,0.00,VWS V14.01,2013-02-24 01:01:00,
2013-02-23 20:06:00,73.0,55.4,29.94,SW,223,0.0,0.0,54,0.00,,---,0.00,VWS V14.01,2013-02-24 01:06:00,
2013-02-23 20:11:00,72.9,55.8,29.94,SW,223,0.0,0.0,55,0.00,,---,0.00,VWS V14.01,2013-02-24 01:11:00,
2013-02-23 20:16:00,72.7,55.1,29.94,SW,223,0.0,0.0,54,0.00,,---,0.00,VWS V14.01,2013-02-24 01:16:00,
2013-02-23 20:21:00,72.5,54.9,29.94,SW,223,0.0,0.0,54,0.00,,---,0.00,VWS V14.01,2013-02-24 01:21:00,
2013-02-23 20:26:00,72.3,54.8,29.94,SW,223,0.0,0.0,54,0.00,,---,0.00,VWS V14.01,2013-02-24 01:26:00,
2013-02-23 20:31:00,72.1,55.1,29.94,South,178,3.1,3.1,55,0.00,,---,0.00,VWS V14.01,2013-02-24 01:31:00,
2013-02-23 20:36:00,72.0,55.4,29.94,SSW,196,0.0,0.0,56,0.00,,---,0.00,VWS V14.01,2013-02-24 01:36:00,
2013-02-23 20:41:00,72.0,56.4,29.94,SW,226,0.0,0.0,58,0.00,,---,0.00,VWS V14.01,2013-02-24 01:41:00,
2013-02-23 20:46:00,72.0,56.4,29.94,WSW,245,0.0,0.0,58,0.00,,---,0.00,VWS V14.01,2013-02-24 01:46:00,
2013-02-23 20:51:00,71.8,56.2,29.94,WSW,245,0.0,0.0,58,0.00,,---,0.00,VWS V14.01,2013-02-24 01:51:00,
2013-02-23 20:56:00,71.8,57.2,29.94,SW,229,0.0,0.0,60,0.00,,---,0.00,VWS V14.01,2013-02-24 01:56:00,
2013-02-23 21:01:00,71.8,57.6,29.94,SW,220,0.0,0.0,61,0.00,,---,0.00,VWS V14.01,2013-02-24 02:01:00,
2013-02-23 21:06:00,72.0,58.7,29.94,SSW,211,0.0,0.0,63,0.00,,---,0.00,VWS V14.01,2013-02-24 02:06:00,
2013-02-23 21:11:00,71.8,58.5,29.94,SW,224,0.0,0.0,63,0.00,,---,0.00,VWS V14.01,2013-02-24 02:11:00,
2013-02-23 21:15:00,71.8,58.1,29.94,SW,235,0.0,0.0,62,0.00,,---,0.00,VWS V14.01,2013-02-24 02:15:00,
2013-02-23 21:20:00,71.6,58.8,29.94,WNW,287,0.0,0.0,64,0.00,,---,0.00,VWS V14.01,2013-02-24 02:20:00,
2013-02-23 21:26:00,71.6,58.8,29.94,SW,228,0.0,0.0,64,0.00,,---,0.00,VWS V14.01,2013-02-24 02:26:00,
2013-02-23 21:31:00,71.4,58.2,29.94,West,273,0.0,0.0,63,0.00,,---,0.00,VWS V14.01,2013-02-24 02:31:00,
2013-02-23 21:36:00,71.2,57.6,29.94,West,273,0.0,0.0,62,0.00,,---,0.00,VWS V14.01,2013-02-24 02:36:00,
2013-02-23 21:40:00,71.1,57.8,29.94,West,273,0.0,0.0,63,0.00,,---,0.00,VWS V14.01,2013-02-24 02:40:00,
2013-02-23 21:46:00,70.9,57.2,29.94,West,273,0.0,0.0,62,0.00,,---,0.00,VWS V14.01,2013-02-24 02:46:00,
2013-02-23 21:51:00,70.7,57.1,29.94,West,273,0.0,0.0,62,0.00,,---,0.00,VWS V14.01,2013-02-24 02:51:00,
2013-02-23 21:56:00,70.5,56.9,29.94,West,273,0.0,0.0,62,0.00,,---,0.00,VWS V14.01,2013-02-24 02:56:00,
2013-02-23 22:00:00,70.3,56.7,29.94,West,273,0.0,0.0,62,0.00,,---,0.00,VWS V14.01,2013-02-24 03:00:00,
2013-02-23 22:06:00,70.2,57.4,29.94,West,273,0.0,0.0,64,0.00,,---,0.00,VWS V14.01,2013-02-24 03:06:00,
2013-02-23 22:10:00,70.0,59.0,29.94,West,273,0.0,0.0,68,0.00,,---,0.00,VWS V14.01,2013-02-24 03:10:00,
2013-02-23 22:16:00,70.0,58.5,29.94,NNW,332,0.0,0.0,67,0.00,,---,0.00,VWS V14.01,2013-02-24 03:16:00,
2013-02-23 22:21:00,70.2,60.7,29.97,NNW,332,0.0,0.0,72,0.00,,---,0.00,VWS V14.01,2013-02-24 03:21:00,
2013-02-23 22:26:00,70.2,59.9,29.97,ESE,123,2.7,6.3,70,0.00,,---,0.00,VWS V14.01,2013-02-24 03:26:00,
2013-02-23 22:31:00,68.9,54.9,29.97,South,172,3.6,4.0,61,0.00,,---,0.00,VWS V14.01,2013-02-24 03:31:00,
2013-02-23 22:36:00,67.6,51.4,29.97,North,7,4.0,7.6,56,0.00,,---,0.00,VWS V14.01,2013-02-24 03:36:00,
2013-02-23 22:40:00,67.1,51.8,29.97,WSW,257,4.0,5.4,58,0.00,,---,0.00,VWS V14.01,2013-02-24 03:40:00,
2013-02-23 22:46:00,66.9,51.7,29.97,ENE,63,3.6,7.6,58,0.00,,---,0.00,VWS V14.01,2013-02-24 03:46:00,
2013-02-23 22:51:00,66.6,50.9,29.97,SE,134,0.0,0.0,57,0.00,,---,0.00,VWS V14.01,2013-02-24 03:51:00,
2013-02-23 22:56:00,66.2,50.5,29.97,WSW,240,0.0,0.0,57,0.00,,---,0.00,VWS V14.01,2013-02-24 03:56:00,
2013-02-23 23:01:00,66.0,50.4,29.97,NW,317,3.1,5.8,57,0.00,,---,0.00,VWS V14.01,2013-02-24 04:01:00,
2013-02-23 23:05:00,66.0,50.8,29.97,ENE,76,0.0,3.1,58,0.00,,---,0.00,VWS V14.01,2013-02-24 04:05:00,
2013-02-23 23:11:00,66.0,50.8,29.97,NE,41,2.7,2.7,58,0.00,,---,0.00,VWS V14.01,2013-02-24 04:11:00,
2013-02-23 23:16:00,65.8,50.7,29.97,North,353,0.0,0.0,58,0.00,,---,0.00,VWS V14.01,2013-02-24 04:16:00,
2013-02-23 23:21:00,65.8,50.7,29.94,North,357,0.0,0.0,58,0.00,,---,0.00,VWS V14.01,2013-02-24 04:21:00,
2013-02-23 23:26:00,65.8,50.7,29.94,NNE,27,0.0,2.7,58,0.00,,---,0.00,VWS V14.01,2013-02-24 04:26:00,
2013-02-23 23:31:00,65.3,50.2,29.94,South,174,0.0,0.0,58,0.00,,---,0.00,VWS V14.01,2013-02-24 04:31:00,
2013-02-23 23:36:00,64.2,51.4,29.97,ENE,67,0.0,0.0,63,0.04,,---,0.04,VWS V14.01,2013-02-24 04:36:00,
2013-02-23 23:41:00,63.3,50.5,29.97,ENE,64,0.0,0.0,63,0.08,,---,0.08,VWS V14.01,2013-02-24 04:41:00,
2013-02-23 23:46:00,62.8,50.8,29.97,North,3,0.0,0.0,65,0.08,,---,0.08,VWS V14.01,2013-02-24 04:46:00,
2013-02-23 23:51:00,62.6,51.1,29.97,North,3,0.0,0.0,66,0.08,,---,0.08,VWS V14.01,2013-02-24 04:51:00,
2013-02-23 23:56:00,62.2,51.2,29.97,East,100,0.0,0.0,67,0.08,,---,0.08,VWS V14.01,2013-02-24 04:56:00,